createdAt,value
2018-04-29T00:00:54.590Z,14.43
2018-04-29T00:01:54.594Z,14.54
2018-04-29T00:02:54.589Z,14.45
2018-04-29T00:03:54.587Z,14.45
2018-04-29T00:04:54.586Z,14.46
2018-04-29T00:05:54.592Z,14.43
2018-04-29T00:06:54.590Z,14.42
2018-04-29T00:07:54.592Z,14.45
2018-04-29T00:08:54.590Z,14.36
2018-04-29T00:09:54.593Z,14.40
2018-04-29T00:10:54.582Z,14.47
2018-04-29T00:11:54.590Z,14.45
2018-04-29T00:12:54.588Z,14.50
2018-04-29T00:13:54.587Z,14.46
2018-04-29T00:14:54.585Z,14.50
2018-04-29T00:15:54.585Z,14.43
2018-04-29T00:16:54.580Z,14.52
2018-04-29T00:17:54.584Z,14.52
2018-04-29T00:18:54.586Z,14.57
2018-04-29T00:19:54.582Z,14.60
2018-04-29T00:20:54.582Z,14.65
2018-04-29T00:21:54.585Z,14.68
2018-04-29T00:22:54.582Z,14.70
2018-04-29T00:23:54.584Z,14.65
2018-04-29T00:24:54.581Z,14.73
2018-04-29T00:25:54.579Z,14.78
2018-04-29T00:26:54.578Z,14.80
2018-04-29T00:27:54.578Z,14.69
2018-04-29T00:28:54.578Z,14.72
2018-04-29T00:29:54.578Z,14.77
2018-04-29T00:30:54.573Z,14.70
2018-04-29T00:31:54.577Z,14.77
2018-04-29T00:32:54.627Z,14.77
2018-04-29T00:33:54.575Z,14.77
2018-04-29T00:34:54.576Z,14.70
2018-04-29T00:35:54.573Z,14.72
2018-04-29T00:36:54.578Z,14.75
2018-04-29T00:37:54.574Z,14.72
2018-04-29T00:38:54.574Z,14.51
2018-04-29T00:39:54.574Z,14.68
2018-04-29T00:40:54.573Z,14.61
2018-04-29T00:41:54.573Z,14.55
2018-04-29T00:42:54.571Z,14.62
2018-04-29T00:43:54.572Z,14.68
2018-04-29T00:44:54.570Z,14.68
2018-04-29T00:45:54.569Z,14.65
2018-04-29T00:46:54.568Z,14.58
2018-04-29T00:47:54.569Z,14.61
2018-04-29T00:48:54.568Z,14.60
2018-04-29T00:49:54.567Z,14.57
2018-04-29T00:50:54.580Z,14.51
2018-04-29T00:51:54.569Z,14.45
2018-04-29T00:52:54.566Z,14.42
2018-04-29T00:53:54.569Z,14.43
2018-04-29T00:54:54.564Z,14.43
2018-04-29T00:55:54.559Z,14.40
2018-04-29T00:56:54.563Z,14.39
2018-04-29T00:57:54.565Z,14.29
2018-04-29T00:58:54.563Z,14.35
2018-04-29T00:59:54.557Z,14.33
2018-04-29T01:00:54.561Z,14.25
2018-04-29T01:01:54.562Z,14.12
2018-04-29T01:02:54.558Z,13.97
2018-04-29T01:03:54.560Z,13.87
2018-04-29T01:04:54.562Z,13.82
2018-04-29T01:05:54.569Z,13.79
2018-04-29T01:06:54.559Z,13.81
2018-04-29T01:07:54.559Z,13.69
2018-04-29T01:08:54.556Z,13.75
2018-04-29T01:09:54.558Z,13.70
2018-04-29T01:10:54.553Z,13.69
2018-04-29T01:11:54.561Z,13.71
2018-04-29T01:12:54.551Z,13.67
2018-04-29T01:13:54.547Z,13.71
2018-04-29T01:14:54.550Z,13.85
2018-04-29T01:15:54.548Z,13.92
2018-04-29T01:16:54.548Z,13.91
2018-04-29T01:17:54.550Z,13.89
2018-04-29T01:18:54.548Z,13.84
2018-04-29T01:19:54.547Z,13.89
2018-04-29T01:20:54.544Z,13.89
2018-04-29T01:21:54.549Z,13.87
2018-04-29T01:22:54.541Z,13.91
2018-04-29T01:23:54.538Z,13.89
2018-04-29T01:24:54.541Z,13.99
2018-04-29T01:25:54.541Z,13.97
2018-04-29T01:26:54.535Z,14.10
2018-04-29T01:27:54.540Z,14.10
2018-04-29T01:28:54.544Z,14.12
2018-04-29T01:29:54.537Z,14.09
2018-04-29T01:30:54.533Z,13.99
2018-04-29T01:31:54.535Z,13.91
2018-04-29T01:32:54.538Z,13.84
2018-04-29T01:33:54.534Z,13.87
2018-04-29T01:34:54.537Z,13.91
2018-04-29T01:35:54.536Z,13.95
2018-04-29T01:36:54.532Z,13.95
2018-04-29T01:37:54.529Z,13.81
2018-04-29T01:38:54.529Z,13.92
2018-04-29T01:39:54.530Z,13.84
2018-04-29T01:40:54.527Z,13.84
2018-04-29T01:41:54.528Z,13.89
2018-04-29T01:42:54.531Z,13.96
2018-04-29T01:43:54.526Z,14.03
2018-04-29T01:44:54.525Z,13.95
2018-04-29T01:45:54.521Z,13.82
2018-04-29T01:46:54.521Z,13.87
2018-04-29T01:47:54.522Z,13.89
2018-04-29T01:48:54.522Z,13.78
2018-04-29T01:49:54.523Z,13.71
2018-04-29T01:50:54.521Z,13.71
2018-04-29T01:51:54.517Z,13.89
2018-04-29T01:52:54.516Z,13.85
2018-04-29T01:53:54.519Z,13.96
2018-04-29T01:54:54.514Z,13.92
2018-04-29T01:55:54.514Z,13.96
2018-04-29T01:56:54.514Z,13.97
2018-04-29T01:57:54.517Z,13.96
2018-04-29T01:58:54.514Z,13.95
2018-04-29T01:59:54.510Z,13.97
2018-04-29T02:00:54.513Z,13.89
2018-04-29T02:01:54.516Z,13.91
2018-04-29T02:02:54.506Z,13.85
2018-04-29T02:03:54.507Z,13.87
2018-04-29T02:04:54.506Z,13.87
2018-04-29T02:05:54.506Z,13.82
2018-04-29T02:06:54.506Z,13.81
2018-04-29T02:07:54.502Z,13.88
2018-04-29T02:08:54.504Z,13.87
2018-04-29T02:09:54.500Z,13.77
2018-04-29T02:10:54.495Z,13.82
2018-04-29T02:11:54.497Z,13.77
2018-04-29T02:12:54.498Z,13.73
2018-04-29T02:13:54.496Z,13.77
2018-04-29T02:14:54.498Z,13.78
2018-04-29T02:15:54.496Z,13.75
2018-04-29T02:16:54.492Z,13.73
2018-04-29T02:17:54.490Z,13.66
2018-04-29T02:18:54.490Z,13.73
2018-04-29T02:19:54.488Z,13.66
2018-04-29T02:20:54.487Z,13.70
2018-04-29T02:21:54.489Z,13.75
2018-04-29T02:22:54.489Z,13.77
2018-04-29T02:23:54.489Z,13.70
2018-04-29T02:24:54.484Z,13.75
2018-04-29T02:25:54.482Z,13.67
2018-04-29T02:26:54.478Z,13.73
2018-04-29T02:27:54.481Z,13.71
2018-04-29T02:28:54.483Z,13.59
2018-04-29T02:29:54.481Z,13.54
2018-04-29T02:30:54.472Z,13.46
2018-04-29T02:31:54.470Z,13.49
2018-04-29T02:32:54.475Z,13.42
2018-04-29T02:33:54.470Z,13.36
2018-04-29T02:34:54.475Z,13.46
2018-04-29T02:35:54.468Z,13.46
2018-04-29T02:36:54.468Z,13.38
2018-04-29T02:37:54.466Z,13.25
2018-04-29T02:38:54.462Z,13.32
2018-04-29T02:39:54.465Z,13.38
2018-04-29T02:40:54.467Z,13.23
2018-04-29T02:41:54.463Z,13.36
2018-04-29T02:42:54.459Z,13.32
2018-04-29T02:43:54.461Z,13.41
2018-04-29T02:44:54.457Z,13.38
2018-04-29T02:45:54.459Z,13.25
2018-04-29T02:46:54.453Z,13.28
2018-04-29T02:47:54.453Z,13.20
2018-04-29T02:48:54.451Z,13.04
2018-04-29T02:49:54.456Z,12.95
2018-04-29T02:50:54.448Z,12.87
2018-04-29T02:51:54.447Z,12.93
2018-04-29T02:52:54.446Z,12.92
2018-04-29T02:53:54.445Z,12.96
2018-04-29T02:54:54.446Z,12.86
2018-04-29T02:55:54.441Z,12.86
2018-04-29T02:56:54.446Z,12.87
2018-04-29T02:57:54.438Z,12.82
2018-04-29T02:58:54.435Z,12.87
2018-04-29T02:59:54.439Z,12.95
2018-04-29T03:00:54.444Z,12.82
2018-04-29T03:01:54.434Z,12.82
2018-04-29T03:02:54.430Z,12.82
2018-04-29T03:03:54.432Z,12.85
2018-04-29T03:04:54.431Z,12.90
2018-04-29T03:05:54.432Z,12.87
2018-04-29T03:06:54.425Z,12.92
2018-04-29T03:07:54.424Z,12.79
2018-04-29T03:08:54.421Z,12.92
2018-04-29T03:09:54.422Z,12.86
2018-04-29T03:10:54.423Z,12.86
2018-04-29T03:11:54.416Z,12.83
2018-04-29T03:12:54.416Z,12.90
2018-04-29T03:13:54.414Z,12.93
2018-04-29T03:14:54.412Z,12.86
2018-04-29T03:15:54.410Z,12.79
2018-04-29T03:16:54.409Z,12.86
2018-04-29T03:17:54.408Z,12.85
2018-04-29T03:18:54.410Z,12.86
2018-04-29T03:19:54.404Z,12.78
2018-04-29T03:20:54.404Z,12.82
2018-04-29T03:21:54.405Z,12.86
2018-04-29T03:22:54.394Z,12.85
2018-04-29T03:23:54.396Z,13.01
2018-04-29T03:24:54.397Z,13.00
2018-04-29T03:25:54.394Z,13.08
2018-04-29T03:26:54.393Z,13.00
2018-04-29T03:27:54.394Z,12.86
2018-04-29T03:28:54.391Z,12.90
2018-04-29T03:29:54.386Z,12.89
2018-04-29T03:30:54.387Z,12.86
2018-04-29T03:31:54.384Z,12.90
2018-04-29T03:32:54.383Z,12.83
2018-04-29T03:33:54.381Z,12.77
2018-04-29T03:34:54.380Z,12.68
2018-04-29T03:35:54.378Z,12.67
2018-04-29T03:36:54.376Z,12.71
2018-04-29T03:37:54.375Z,12.68
2018-04-29T03:38:54.374Z,12.57
2018-04-29T03:39:54.370Z,12.62
2018-04-29T03:40:54.369Z,12.68
2018-04-29T03:41:54.368Z,12.60
2018-04-29T03:42:54.371Z,12.53
2018-04-29T03:43:54.364Z,12.53
2018-04-29T03:44:54.364Z,12.54
2018-04-29T03:45:54.359Z,12.56
2018-04-29T03:46:54.359Z,12.50
2018-04-29T03:47:54.352Z,12.53
2018-04-29T03:48:54.355Z,12.54
2018-04-29T03:49:54.352Z,12.52
2018-04-29T03:50:54.350Z,12.52
2018-04-29T03:51:54.350Z,12.53
2018-04-29T03:52:54.347Z,12.49
2018-04-29T03:53:54.345Z,12.46
2018-04-29T03:54:54.346Z,12.41
2018-04-29T03:55:54.346Z,12.24
2018-04-29T03:56:54.335Z,12.21
2018-04-29T03:57:54.336Z,12.31
2018-04-29T03:58:54.332Z,12.28
2018-04-29T03:59:54.331Z,12.20
2018-04-29T04:00:54.336Z,12.23
2018-04-29T04:01:54.329Z,12.24
2018-04-29T04:02:54.330Z,12.24
2018-04-29T04:03:54.326Z,12.27
2018-04-29T04:04:54.324Z,12.28
2018-04-29T04:05:54.321Z,12.31
2018-04-29T04:06:54.317Z,12.24
2018-04-29T04:07:54.316Z,12.34
2018-04-29T04:08:54.313Z,12.23
2018-04-29T04:09:54.313Z,12.34
2018-04-29T04:10:54.310Z,12.38
2018-04-29T04:11:54.307Z,12.47
2018-04-29T04:12:54.310Z,12.45
2018-04-29T04:13:54.303Z,12.42
2018-04-29T04:14:54.302Z,12.41
2018-04-29T04:15:54.299Z,12.39
2018-04-29T04:16:54.297Z,12.42
2018-04-29T04:17:54.300Z,12.38
2018-04-29T04:18:54.302Z,12.46
2018-04-29T04:19:54.294Z,12.45
2018-04-29T04:20:54.295Z,12.38
2018-04-29T04:21:54.289Z,12.42
2018-04-29T04:22:54.285Z,12.50
2018-04-29T04:23:54.283Z,12.52
2018-04-29T04:24:54.282Z,12.68
2018-04-29T04:25:54.280Z,12.57
2018-04-29T04:26:54.282Z,12.65
2018-04-29T04:27:54.275Z,12.68
2018-04-29T04:28:54.275Z,12.72
2018-04-29T04:29:54.278Z,12.67
2018-04-29T04:30:54.270Z,12.74
2018-04-29T04:31:54.268Z,12.77
2018-04-29T04:32:54.265Z,12.83
2018-04-29T04:33:54.266Z,12.83
2018-04-29T04:34:54.262Z,12.85
2018-04-29T04:35:54.262Z,12.85
2018-04-29T04:36:54.258Z,12.90
2018-04-29T04:37:54.257Z,12.86
2018-04-29T04:38:54.259Z,12.96
2018-04-29T04:39:54.255Z,13.10
2018-04-29T04:40:54.250Z,13.07
2018-04-29T04:41:54.250Z,13.12
2018-04-29T04:42:54.247Z,13.10
2018-04-29T04:43:54.242Z,13.15
2018-04-29T04:44:54.245Z,13.11
2018-04-29T04:45:54.242Z,13.17
2018-04-29T04:46:54.237Z,13.30
2018-04-29T04:47:54.237Z,13.32
2018-04-29T04:48:54.239Z,13.41
2018-04-29T04:49:54.233Z,13.41
2018-04-29T04:50:54.230Z,13.36
2018-04-29T04:51:54.231Z,13.36
2018-04-29T04:52:54.239Z,13.49
2018-04-29T04:53:54.225Z,13.52
2018-04-29T04:54:54.226Z,13.69
2018-04-29T04:55:54.223Z,13.71
2018-04-29T04:56:54.220Z,13.70
2018-04-29T04:57:54.227Z,13.78
2018-04-29T04:58:54.218Z,13.78
2018-04-29T04:59:54.216Z,14.02
2018-04-29T05:00:54.217Z,14.10
2018-04-29T05:01:54.215Z,14.09
2018-04-29T05:02:54.211Z,14.18
2018-04-29T05:03:54.210Z,14.25
2018-04-29T05:04:54.209Z,14.40
2018-04-29T05:05:54.208Z,14.80
2018-04-29T05:06:54.205Z,15.07
2018-04-29T05:07:54.204Z,15.31
2018-04-29T05:08:54.205Z,15.69
2018-04-29T05:09:54.202Z,16.14
2018-04-29T05:10:54.201Z,16.68
2018-04-29T05:11:54.195Z,17.43
2018-04-29T05:12:54.198Z,18.02
2018-04-29T05:13:54.195Z,18.45
2018-04-29T05:14:54.196Z,19.14
2018-04-29T05:15:54.194Z,19.81
2018-04-29T05:16:54.193Z,20.18
2018-04-29T05:17:54.193Z,20.28
2018-04-29T05:18:54.194Z,20.62
2018-04-29T05:19:54.194Z,20.91
2018-04-29T05:20:54.195Z,20.89
2018-04-29T05:21:54.191Z,20.80
2018-04-29T05:22:54.187Z,21.13
2018-04-29T05:23:54.188Z,21.59
2018-04-29T05:24:54.186Z,21.67
2018-04-29T05:25:54.192Z,21.72
2018-04-29T05:26:54.193Z,22.40
2018-04-29T05:27:54.188Z,22.37
2018-04-29T05:28:54.189Z,22.24
2018-04-29T05:29:54.191Z,21.98
2018-04-29T05:30:54.191Z,21.77
2018-04-29T05:31:54.190Z,21.83
2018-04-29T05:32:54.195Z,21.86
2018-04-29T05:33:54.193Z,21.84
2018-04-29T05:34:54.194Z,22.51
2018-04-29T05:35:54.193Z,23.17
2018-04-29T05:36:54.195Z,23.01
2018-04-29T05:37:54.194Z,23.28
2018-04-29T05:38:54.196Z,23.50
2018-04-29T05:39:54.198Z,23.79
2018-04-29T05:40:54.195Z,24.35
2018-04-29T05:41:54.201Z,24.45
2018-04-29T05:42:54.202Z,24.71
2018-04-29T05:43:54.205Z,24.81
2018-04-29T05:44:54.207Z,24.84
2018-04-29T05:45:54.207Z,25.02
2018-04-29T05:46:54.241Z,25.15
2018-04-29T05:47:54.213Z,25.30
2018-04-29T05:48:54.213Z,25.30
2018-04-29T05:49:54.290Z,25.62
2018-04-29T05:50:54.219Z,25.33
2018-04-29T05:51:54.220Z,25.45
2018-04-29T05:52:54.226Z,25.55
2018-04-29T05:53:54.227Z,25.77
2018-04-29T05:54:54.238Z,25.82
2018-04-29T05:55:54.230Z,26.28
2018-04-29T05:56:54.234Z,26.39
2018-04-29T05:57:54.239Z,26.65
2018-04-29T05:58:54.238Z,26.91
2018-04-29T05:59:54.241Z,27.17
2018-04-29T06:00:54.242Z,27.39
2018-04-29T06:01:54.248Z,27.51
2018-04-29T06:02:54.254Z,26.97
2018-04-29T06:03:54.255Z,26.26
2018-04-29T06:04:54.260Z,25.24
2018-04-29T06:05:54.262Z,24.49
2018-04-29T06:06:54.263Z,23.91
2018-04-29T06:07:54.268Z,23.90
2018-04-29T06:08:54.270Z,24.47
2018-04-29T06:09:54.278Z,24.99
2018-04-29T06:10:54.280Z,24.49
2018-04-29T06:11:54.282Z,24.16
2018-04-29T06:12:54.286Z,24.10
2018-04-29T06:13:54.288Z,24.93
2018-04-29T06:14:54.296Z,25.69
2018-04-29T06:15:54.300Z,26.30
2018-04-29T06:16:54.299Z,27.03
2018-04-29T06:17:54.304Z,26.85
2018-04-29T06:18:54.319Z,26.15
2018-04-29T06:19:54.312Z,26.23
2018-04-29T06:20:54.317Z,27.04
2018-04-29T06:21:54.321Z,27.87
2018-04-29T06:22:54.325Z,28.58
2018-04-29T06:23:54.329Z,29.02
2018-04-29T06:24:54.335Z,28.48
2018-04-29T06:25:54.369Z,29.31
2018-04-29T06:26:54.344Z,29.97
2018-04-29T06:27:54.350Z,30.37
2018-04-29T06:28:54.367Z,30.72
2018-04-29T06:29:54.364Z,30.67
2018-04-29T06:30:54.364Z,30.53
2018-04-29T06:31:54.434Z,30.39
2018-04-29T06:32:54.377Z,29.04
2018-04-29T06:33:54.383Z,28.90
2018-04-29T06:34:54.388Z,28.61
2018-04-29T06:35:54.392Z,28.30
2018-04-29T06:36:54.397Z,28.96
2018-04-29T06:37:54.406Z,28.27
2018-04-29T06:38:54.451Z,28.06
2018-04-29T06:39:54.414Z,27.59
2018-04-29T06:40:54.422Z,26.99
2018-04-29T06:41:54.428Z,26.50
2018-04-29T06:42:54.427Z,26.17
2018-04-29T06:43:54.498Z,25.33
2018-04-29T06:44:54.448Z,25.10
2018-04-29T06:45:54.454Z,24.60
2018-04-29T06:46:54.532Z,23.42
2018-04-29T06:47:54.463Z,22.79
2018-04-29T06:48:54.469Z,22.91
2018-04-29T06:49:54.473Z,24.37
2018-04-29T06:50:54.477Z,25.32
2018-04-29T06:51:54.485Z,25.39
2018-04-29T06:52:54.489Z,24.76
2018-04-29T06:53:54.495Z,25.23
2018-04-29T06:54:54.500Z,24.47
2018-04-29T06:55:54.505Z,24.39
2018-04-29T06:56:54.527Z,25.17
2018-04-29T06:57:54.517Z,25.77
2018-04-29T06:58:54.531Z,25.94
2018-04-29T06:59:54.529Z,25.79
2018-04-29T07:00:54.598Z,24.76
2018-04-29T07:01:54.542Z,23.05
2018-04-29T07:02:54.547Z,22.25
2018-04-29T07:03:54.551Z,21.42
2018-04-29T07:04:54.557Z,21.22
2018-04-29T07:05:54.561Z,20.89
2018-04-29T07:06:54.574Z,20.92
2018-04-29T07:07:54.572Z,21.17
2018-04-29T07:08:54.577Z,21.40
2018-04-29T07:09:54.585Z,21.35
2018-04-29T07:10:54.591Z,21.59
2018-04-29T07:11:54.597Z,22.07
2018-04-29T07:12:54.602Z,22.43
2018-04-29T07:13:54.603Z,22.58
2018-04-29T07:14:54.607Z,22.42
2018-04-29T07:15:54.615Z,21.99
2018-04-29T07:16:54.622Z,21.65
2018-04-29T07:17:54.623Z,21.49
2018-04-29T07:18:54.622Z,21.32
2018-04-29T07:19:54.698Z,21.43
2018-04-29T07:20:54.638Z,21.43
2018-04-29T07:21:54.639Z,21.49
2018-04-29T07:22:54.647Z,21.34
2018-04-29T07:23:54.657Z,21.13
2018-04-29T07:24:54.654Z,20.91
2018-04-29T07:25:54.660Z,20.69
2018-04-29T07:26:54.667Z,20.58
2018-04-29T07:27:54.667Z,20.54
2018-04-29T07:28:54.671Z,20.67
2018-04-29T07:29:54.674Z,20.70
2018-04-29T07:30:54.679Z,20.64
2018-04-29T07:31:54.682Z,20.67
2018-04-29T07:32:54.687Z,20.57
2018-04-29T07:33:54.693Z,20.61
2018-04-29T07:34:54.699Z,20.64
2018-04-29T07:35:54.696Z,20.21
2018-04-29T07:36:54.703Z,20.17
2018-04-29T07:37:54.713Z,19.92
2018-04-29T07:38:54.708Z,20.02
2018-04-29T07:39:54.752Z,19.78
2018-04-29T07:40:54.771Z,19.86
2018-04-29T07:41:54.718Z,19.83
2018-04-29T07:42:54.723Z,19.99
2018-04-29T07:43:54.727Z,20.14
2018-04-29T07:44:54.731Z,20.23
2018-04-29T07:45:54.734Z,20.26
2018-04-29T07:46:54.738Z,20.17
2018-04-29T07:47:54.741Z,20.05
2018-04-29T07:48:54.742Z,20.14
2018-04-29T07:49:54.744Z,20.20
2018-04-29T07:50:54.748Z,20.03
2018-04-29T07:51:54.754Z,19.96
2018-04-29T07:52:54.756Z,19.84
2018-04-29T07:53:54.759Z,19.74
2018-04-29T07:54:54.761Z,19.73
2018-04-29T07:55:54.767Z,19.68
2018-04-29T07:56:54.767Z,19.81
2018-04-29T07:57:54.770Z,19.71
2018-04-29T07:58:54.770Z,19.86
2018-04-29T07:59:54.777Z,20.20
2018-04-29T08:00:54.777Z,20.31
2018-04-29T08:01:54.781Z,20.84
2018-04-29T08:02:54.788Z,20.97
2018-04-29T08:03:54.791Z,21.01
2018-04-29T08:04:54.790Z,20.73
2018-04-29T08:05:54.797Z,20.35
2018-04-29T08:06:54.799Z,20.03
2018-04-29T08:07:54.800Z,20.14
2018-04-29T08:08:54.804Z,20.57
2018-04-29T08:09:54.807Z,20.61
2018-04-29T08:10:54.835Z,20.77
2018-04-29T08:11:54.813Z,20.66
2018-04-29T08:12:54.815Z,20.66
2018-04-29T08:13:54.819Z,20.39
2018-04-29T08:14:54.823Z,20.24
2018-04-29T08:15:54.827Z,20.20
2018-04-29T08:16:54.828Z,20.18
2018-04-29T08:17:54.833Z,20.23
2018-04-29T08:18:54.834Z,20.51
2018-04-29T08:19:54.837Z,20.66
2018-04-29T08:20:54.849Z,20.73
2018-04-29T08:21:54.849Z,21.12
2018-04-29T08:22:54.847Z,21.29
2018-04-29T08:23:54.850Z,21.44
2018-04-29T08:24:54.857Z,21.13
2018-04-29T08:25:54.857Z,21.07
2018-04-29T08:26:54.862Z,20.80
2018-04-29T08:27:54.864Z,20.59
2018-04-29T08:28:54.870Z,20.84
2018-04-29T08:29:54.873Z,20.61
2018-04-29T08:30:54.871Z,20.51
2018-04-29T08:31:54.876Z,20.80
2018-04-29T08:32:54.883Z,20.84
2018-04-29T08:33:54.886Z,20.58
2018-04-29T08:34:54.887Z,20.43
2018-04-29T08:35:54.889Z,20.36
2018-04-29T08:36:54.894Z,21.43
2018-04-29T08:37:54.902Z,22.15
2018-04-29T08:38:54.900Z,21.47
2018-04-29T08:39:54.907Z,20.95
2018-04-29T08:40:54.907Z,20.58
2018-04-29T08:41:54.988Z,20.42
2018-04-29T08:42:54.915Z,20.77
2018-04-29T08:43:54.915Z,21.56
2018-04-29T08:44:54.922Z,21.42
2018-04-29T08:45:54.928Z,21.22
2018-04-29T08:46:54.929Z,20.80
2018-04-29T08:47:54.932Z,20.69
2018-04-29T08:48:54.935Z,20.54
2018-04-29T08:49:54.940Z,20.33
2018-04-29T08:50:54.942Z,20.48
2018-04-29T08:51:54.945Z,20.43
2018-04-29T08:52:54.951Z,21.34
2018-04-29T08:53:54.952Z,22.40
2018-04-29T08:54:55.019Z,23.07
2018-04-29T08:55:55.005Z,23.66
2018-04-29T08:56:54.963Z,23.42
2018-04-29T08:57:54.966Z,24.21
2018-04-29T08:58:54.968Z,23.76
2018-04-29T08:59:54.971Z,23.55
2018-04-29T09:00:54.978Z,23.51
2018-04-29T09:01:54.978Z,23.68
2018-04-29T09:02:54.982Z,23.48
2018-04-29T09:03:55.024Z,23.50
2018-04-29T09:04:54.992Z,22.49
2018-04-29T09:05:55.006Z,22.31
2018-04-29T09:06:54.997Z,21.72
2018-04-29T09:07:54.998Z,21.44
2018-04-29T09:08:55.002Z,21.16
2018-04-29T09:09:55.006Z,20.99
2018-04-29T09:10:55.013Z,20.74
2018-04-29T09:11:55.013Z,20.66
2018-04-29T09:12:55.015Z,20.77
2018-04-29T09:13:55.018Z,20.74
2018-04-29T09:14:55.020Z,20.67
2018-04-29T09:15:55.033Z,20.76
2018-04-29T09:16:55.043Z,20.66
2018-04-29T09:17:55.027Z,20.82
2018-04-29T09:18:55.033Z,20.91
2018-04-29T09:19:55.036Z,21.12
2018-04-29T09:20:55.041Z,21.14
2018-04-29T09:21:55.039Z,21.29
2018-04-29T09:22:55.044Z,21.37
2018-04-29T09:23:55.048Z,21.10
2018-04-29T09:24:55.047Z,20.62
2018-04-29T09:25:55.049Z,20.62
2018-04-29T09:26:55.058Z,20.54
2018-04-29T09:27:55.054Z,20.54
2018-04-29T09:28:55.057Z,20.66
2018-04-29T09:29:55.063Z,20.72
2018-04-29T09:30:55.068Z,20.82
2018-04-29T09:31:55.065Z,20.92
2018-04-29T09:32:55.069Z,20.95
2018-04-29T09:33:55.071Z,20.85
2018-04-29T09:34:55.072Z,20.87
2018-04-29T09:35:55.072Z,20.59
2018-04-29T09:36:55.123Z,20.70
2018-04-29T09:37:55.090Z,20.91
2018-04-29T09:38:55.078Z,21.09
2018-04-29T09:39:55.082Z,21.21
2018-04-29T09:40:55.084Z,21.32
2018-04-29T09:41:55.087Z,21.38
2018-04-29T09:42:55.093Z,21.44
2018-04-29T09:43:55.093Z,21.06
2018-04-29T09:44:55.095Z,21.12
2018-04-29T09:45:55.097Z,21.01
2018-04-29T09:46:55.100Z,21.09
2018-04-29T09:47:55.101Z,21.03
2018-04-29T09:48:55.105Z,20.84
2018-04-29T09:49:55.107Z,20.91
2018-04-29T09:50:55.109Z,20.97
2018-04-29T09:51:55.110Z,21.16
2018-04-29T09:52:55.116Z,21.27
2018-04-29T09:53:55.118Z,21.38
2018-04-29T09:54:55.119Z,21.44
2018-04-29T09:55:55.119Z,21.28
2018-04-29T09:56:55.121Z,21.16
2018-04-29T09:57:55.123Z,21.21
2018-04-29T09:58:55.176Z,21.06
2018-04-29T09:59:55.130Z,21.04
2018-04-29T10:00:55.137Z,21.10
2018-04-29T10:01:55.135Z,21.22
2018-04-29T10:02:55.134Z,21.38
2018-04-29T10:03:55.136Z,21.34
2018-04-29T10:04:55.138Z,21.28
2018-04-29T10:05:55.145Z,21.35
2018-04-29T10:06:55.144Z,21.25
2018-04-29T10:07:55.146Z,21.34
2018-04-29T10:08:55.149Z,21.49
2018-04-29T10:09:55.150Z,21.50
2018-04-29T10:10:55.153Z,21.72
2018-04-29T10:11:55.176Z,21.75
2018-04-29T10:12:55.159Z,21.61
2018-04-29T10:13:55.159Z,21.38
2018-04-29T10:14:55.160Z,21.58
2018-04-29T10:15:55.164Z,21.82
2018-04-29T10:16:55.166Z,22.09
2018-04-29T10:17:55.176Z,22.12
2018-04-29T10:18:55.259Z,22.22
2018-04-29T10:19:55.172Z,22.10
2018-04-29T10:20:55.178Z,22.10
2018-04-29T10:21:55.179Z,22.06
2018-04-29T10:22:55.180Z,22.17
2018-04-29T10:23:55.183Z,22.06
2018-04-29T10:24:55.186Z,21.91
2018-04-29T10:25:55.188Z,21.91
2018-04-29T10:26:55.199Z,21.98
2018-04-29T10:27:55.193Z,21.90
2018-04-29T10:28:55.200Z,21.67
2018-04-29T10:29:55.199Z,21.47
2018-04-29T10:30:55.201Z,21.27
2018-04-29T10:31:55.202Z,21.56
2018-04-29T10:32:55.226Z,21.72
2018-04-29T10:33:55.211Z,22.00
2018-04-29T10:34:55.212Z,21.86
2018-04-29T10:35:55.252Z,21.90
2018-04-29T10:36:55.215Z,22.02
2018-04-29T10:37:55.220Z,22.14
2018-04-29T10:38:55.222Z,22.18
2018-04-29T10:39:55.225Z,22.35
2018-04-29T10:40:55.230Z,22.39
2018-04-29T10:41:55.237Z,22.35
2018-04-29T10:42:55.232Z,22.07
2018-04-29T10:43:55.235Z,21.88
2018-04-29T10:44:55.233Z,21.96
2018-04-29T10:45:55.240Z,22.24
2018-04-29T10:46:55.242Z,22.35
2018-04-29T10:47:55.248Z,22.37
2018-04-29T10:48:55.250Z,22.52
2018-04-29T10:49:55.252Z,22.52
2018-04-29T10:50:55.254Z,22.70
2018-04-29T10:51:55.256Z,22.85
2018-04-29T10:52:55.259Z,22.86
2018-04-29T10:53:55.264Z,23.00
2018-04-29T10:54:55.267Z,22.67
2018-04-29T10:55:55.340Z,22.61
2018-04-29T10:56:55.272Z,22.68
2018-04-29T10:57:55.275Z,22.58
2018-04-29T10:58:55.278Z,22.52
2018-04-29T10:59:55.281Z,22.58
2018-04-29T11:00:55.286Z,22.54
2018-04-29T11:01:55.291Z,22.36
2018-04-29T11:02:55.292Z,22.31
2018-04-29T11:03:55.293Z,22.22
2018-04-29T11:04:55.299Z,22.40
2018-04-29T11:05:55.299Z,22.65
2018-04-29T11:06:55.304Z,22.76
2018-04-29T11:07:55.306Z,22.86
2018-04-29T11:08:55.309Z,23.05
2018-04-29T11:09:55.315Z,23.10
2018-04-29T11:10:55.318Z,22.76
2018-04-29T11:11:55.320Z,22.54
2018-04-29T11:12:55.323Z,22.64
2018-04-29T11:13:55.322Z,22.60
2018-04-29T11:14:55.330Z,22.57
2018-04-29T11:15:55.331Z,22.75
2018-04-29T11:16:55.334Z,22.85
2018-04-29T11:17:55.337Z,22.83
2018-04-29T11:18:55.340Z,22.72
2018-04-29T11:19:55.344Z,22.86
2018-04-29T11:20:55.347Z,22.88
2018-04-29T11:21:55.349Z,22.82
2018-04-29T11:22:55.361Z,22.70
2018-04-29T11:23:55.356Z,22.80
2018-04-29T11:24:55.359Z,22.77
2018-04-29T11:25:55.363Z,22.76
2018-04-29T11:26:55.366Z,22.54
2018-04-29T11:27:55.376Z,22.85
2018-04-29T11:28:55.441Z,23.04
2018-04-29T11:29:55.375Z,23.13
2018-04-29T11:30:55.383Z,23.16
2018-04-29T11:31:55.381Z,23.20
2018-04-29T11:32:55.387Z,23.15
2018-04-29T11:33:55.471Z,23.20
2018-04-29T11:34:55.392Z,23.31
2018-04-29T11:35:55.401Z,23.22
2018-04-29T11:36:55.401Z,23.22
2018-04-29T11:37:55.406Z,23.38
2018-04-29T11:38:55.411Z,23.47
2018-04-29T11:39:55.409Z,23.42
2018-04-29T11:40:55.414Z,23.55
2018-04-29T11:41:55.416Z,23.38
2018-04-29T11:42:55.419Z,23.09
2018-04-29T11:43:55.425Z,22.88
2018-04-29T11:44:55.426Z,22.94
2018-04-29T11:45:55.477Z,23.16
2018-04-29T11:46:55.438Z,23.27
2018-04-29T11:47:55.438Z,23.40
2018-04-29T11:48:55.441Z,23.50
2018-04-29T11:49:55.446Z,23.58
2018-04-29T11:50:55.448Z,23.53
2018-04-29T11:51:55.452Z,23.60
2018-04-29T11:52:55.455Z,23.20
2018-04-29T11:53:55.460Z,23.40
2018-04-29T11:54:55.461Z,23.22
2018-04-29T11:55:55.467Z,23.10
2018-04-29T11:56:55.471Z,22.80
2018-04-29T11:57:55.476Z,22.92
2018-04-29T11:58:55.476Z,23.13
2018-04-29T11:59:55.481Z,23.13
2018-04-29T12:00:55.484Z,23.17
2018-04-29T12:01:55.569Z,23.17
2018-04-29T12:02:55.496Z,23.31
2018-04-29T12:03:55.495Z,23.42
2018-04-29T12:04:55.499Z,23.46
2018-04-29T12:05:55.503Z,23.33
2018-04-29T12:06:55.510Z,23.40
2018-04-29T12:07:55.510Z,23.47
2018-04-29T12:08:55.522Z,23.61
2018-04-29T12:09:55.524Z,23.47
2018-04-29T12:10:55.525Z,23.66
2018-04-29T12:11:55.523Z,23.79
2018-04-29T12:12:55.527Z,23.93
2018-04-29T12:13:55.531Z,24.06
2018-04-29T12:14:55.533Z,24.22
2018-04-29T12:15:55.535Z,24.28
2018-04-29T12:16:55.544Z,24.30
2018-04-29T12:17:55.546Z,24.34
2018-04-29T12:18:55.549Z,24.45
2018-04-29T12:19:55.564Z,24.46
2018-04-29T12:20:55.560Z,24.35
2018-04-29T12:21:55.597Z,24.09
2018-04-29T12:22:55.564Z,23.63
2018-04-29T12:23:55.568Z,23.54
2018-04-29T12:24:55.571Z,23.72
2018-04-29T12:25:55.577Z,23.93
2018-04-29T12:26:55.581Z,23.84
2018-04-29T12:27:55.593Z,23.91
2018-04-29T12:28:55.593Z,24.03
2018-04-29T12:29:55.594Z,24.20
2018-04-29T12:30:55.598Z,24.18
2018-04-29T12:31:55.600Z,24.16
2018-04-29T12:32:55.604Z,24.13
2018-04-29T12:33:55.607Z,24.22
2018-04-29T12:34:55.612Z,24.20
2018-04-29T12:35:55.615Z,24.32
2018-04-29T12:36:55.619Z,24.32
2018-04-29T12:37:55.627Z,24.22
2018-04-29T12:38:55.637Z,24.32
2018-04-29T12:39:55.711Z,24.32
2018-04-29T12:40:55.638Z,24.28
2018-04-29T12:41:55.638Z,24.30
2018-04-29T12:42:55.651Z,24.28
2018-04-29T12:43:55.652Z,24.30
2018-04-29T12:44:55.654Z,24.27
2018-04-29T12:45:55.660Z,24.31
2018-04-29T12:46:55.664Z,24.42
2018-04-29T12:47:55.668Z,24.30
2018-04-29T12:48:55.673Z,24.25
2018-04-29T12:49:55.675Z,24.37
2018-04-29T12:50:55.679Z,24.34
2018-04-29T12:51:55.684Z,24.20
2018-04-29T12:52:55.708Z,24.10